Kenney, Illinois
Current Conditions -  °F | °C
As of 11:35 AM on Monday 22 Dec 2014 (Local Time) from KAAA Reporting Station
Moderate Rain Moderate Rain  
Wind Chill: 32°   Ceiling: 400
Heat Index: 39°   Visibility: 1.7mi
Dew Point: 38°   Wind: 12mph
Humidity: 95%   Direction: 130°SE
Pressure: 29.72"   Gusts: NA
Location:  40.1°N, 89.09°W
Report Text: KAAA 221735Z AUTO 13010KT 1 3/4SM RA OVC004 04/03 A2972 RMK AO2 P0004 T00400032
Loading
Personal Weather Stations






























Interactive Weather Map New forecast layout! Learn more

10-Day Weather Forecast

Advertisements
Track Severe Weather on mobile